sensor_id;sensor_type;location;lat;lon;timestamp;P1;durP1;ratioP1;P2;durP2;ratioP2
17310;SDS011;8773;43.300;0.394;2023-10-08T00:00:06;5.30;;;4.63;;
17310;SDS011;8773;43.300;0.394;2023-10-08T00:02:34;6.13;;;4.50;;
17310;SDS011;8773;43.300;0.394;2023-10-08T00:05:02;5.33;;;4.17;;
17310;SDS011;8773;43.300;0.394;2023-10-08T00:07:30;5.73;;;4.40;;
17310;SDS011;8773;43.300;0.394;2023-10-08T00:09:57;5.07;;;4.67;;
17310;SDS011;8773;43.300;0.394;2023-10-08T00:12:24;5.73;;;4.60;;
17310;SDS011;8773;43.300;0.394;2023-10-08T00:14:52;5.20;;;4.70;;
17310;SDS011;8773;43.300;0.394;2023-10-08T00:17:20;5.70;;;5.00;;
17310;SDS011;8773;43.300;0.394;2023-10-08T00:19:48;6.73;;;5.40;;
17310;SDS011;8773;43.300;0.394;2023-10-08T00:22:15;5.47;;;4.97;;
17310;SDS011;8773;43.300;0.394;2023-10-08T00:24:42;5.57;;;5.07;;
17310;SDS011;8773;43.300;0.394;2023-10-08T00:27:10;6.23;;;5.47;;
17310;SDS011;8773;43.300;0.394;2023-10-08T00:29:37;8.23;;;5.07;;
17310;SDS011;8773;43.300;0.394;2023-10-08T00:32:05;8.50;;;5.20;;
17310;SDS011;8773;43.300;0.394;2023-10-08T00:34:34;5.77;;;4.80;;
17310;SDS011;8773;43.300;0.394;2023-10-08T00:37:01;5.87;;;5.23;;
17310;SDS011;8773;43.300;0.394;2023-10-08T00:39:29;5.03;;;4.53;;
17310;SDS011;8773;43.300;0.394;2023-10-08T00:41:56;5.83;;;5.10;;
17310;SDS011;8773;43.300;0.394;2023-10-08T00:44:24;6.47;;;4.90;;
17310;SDS011;8773;43.300;0.394;2023-10-08T00:46:51;5.97;;;4.23;;
17310;SDS011;8773;43.300;0.394;2023-10-08T00:49:21;4.80;;;4.40;;
17310;SDS011;8773;43.300;0.394;2023-10-08T00:51:51;5.07;;;4.57;;
17310;SDS011;8773;43.300;0.394;2023-10-08T00:54:22;6.17;;;4.47;;
17310;SDS011;8773;43.300;0.394;2023-10-08T00:56:50;5.40;;;4.57;;
17310;SDS011;8773;43.300;0.394;2023-10-08T00:59:17;4.60;;;4.27;;
17310;SDS011;8773;43.300;0.394;2023-10-08T01:01:45;5.03;;;4.53;;
17310;SDS011;8773;43.300;0.394;2023-10-08T01:04:15;5.10;;;4.60;;
17310;SDS011;8773;43.300;0.394;2023-10-08T01:06:43;5.27;;;4.50;;
17310;SDS011;8773;43.300;0.394;2023-10-08T01:09:12;5.90;;;4.80;;
17310;SDS011;8773;43.300;0.394;2023-10-08T01:11:40;6.67;;;4.93;;
17310;SDS011;8773;43.300;0.394;2023-10-08T01:14:07;8.00;;;4.80;;
17310;SDS011;8773;43.300;0.394;2023-10-08T01:16:35;5.43;;;4.60;;
17310;SDS011;8773;43.300;0.394;2023-10-08T01:19:02;5.10;;;4.50;;
17310;SDS011;8773;43.300;0.394;2023-10-08T01:21:30;4.67;;;4.27;;
17310;SDS011;8773;43.300;0.394;2023-10-08T01:23:59;4.87;;;4.43;;
17310;SDS011;8773;43.300;0.394;2023-10-08T01:26:27;5.23;;;4.73;;
17310;SDS011;8773;43.300;0.394;2023-10-08T01:28:54;4.63;;;4.20;;
17310;SDS011;8773;43.300;0.394;2023-10-08T01:31:22;4.87;;;4.40;;
17310;SDS011;8773;43.300;0.394;2023-10-08T01:33:49;4.57;;;4.17;;
17310;SDS011;8773;43.300;0.394;2023-10-08T01:36:16;4.60;;;4.20;;
17310;SDS011;8773;43.300;0.394;2023-10-08T01:38:44;6.30;;;4.73;;
17310;SDS011;8773;43.300;0.394;2023-10-08T01:41:13;5.33;;;4.33;;
17310;SDS011;8773;43.300;0.394;2023-10-08T01:43:40;5.13;;;4.33;;
17310;SDS011;8773;43.300;0.394;2023-10-08T01:46:08;4.60;;;4.13;;
17310;SDS011;8773;43.300;0.394;2023-10-08T01:48:35;5.03;;;4.63;;
17310;SDS011;8773;43.300;0.394;2023-10-08T01:51:03;5.47;;;4.70;;
17310;SDS011;8773;43.300;0.394;2023-10-08T01:53:30;5.33;;;4.50;;
17310;SDS011;8773;43.300;0.394;2023-10-08T01:55:58;4.63;;;3.73;;
17310;SDS011;8773;43.300;0.394;2023-10-08T01:58:27;4.50;;;4.10;;
17310;SDS011;8773;43.300;0.394;2023-10-08T02:00:54;4.60;;;4.20;;
17310;SDS011;8773;43.300;0.394;2023-10-08T02:03:21;4.43;;;4.10;;
17310;SDS011;8773;43.300;0.394;2023-10-08T02:05:49;5.37;;;4.50;;
17310;SDS011;8773;43.300;0.394;2023-10-08T02:08:16;6.03;;;4.30;;
17310;SDS011;8773;43.300;0.394;2023-10-08T02:10:44;4.83;;;4.43;;
17310;SDS011;8773;43.300;0.394;2023-10-08T02:13:11;5.40;;;4.50;;
17310;SDS011;8773;43.300;0.394;2023-10-08T02:15:43;5.03;;;4.63;;
17310;SDS011;8773;43.300;0.394;2023-10-08T02:18:12;6.00;;;4.47;;
17310;SDS011;8773;43.300;0.394;2023-10-08T02:20:39;4.90;;;4.50;;
17310;SDS011;8773;43.300;0.394;2023-10-08T02:23:07;4.87;;;4.30;;
17310;SDS011;8773;43.300;0.394;2023-10-08T02:25:34;5.13;;;4.63;;
17310;SDS011;8773;43.300;0.394;2023-10-08T02:28:02;5.23;;;4.30;;
17310;SDS011;8773;43.300;0.394;2023-10-08T02:30:30;5.37;;;4.57;;
17310;SDS011;8773;43.300;0.394;2023-10-08T02:32:59;5.10;;;4.60;;
17310;SDS011;8773;43.300;0.394;2023-10-08T02:35:26;4.63;;;4.20;;
17310;SDS011;8773;43.300;0.394;2023-10-08T02:37:54;5.40;;;4.83;;
17310;SDS011;8773;43.300;0.394;2023-10-08T02:40:22;4.70;;;4.30;;
17310;SDS011;8773;43.300;0.394;2023-10-08T02:42:49;4.87;;;4.27;;
17310;SDS011;8773;43.300;0.394;2023-10-08T02:45:16;5.47;;;4.80;;
17310;SDS011;8773;43.300;0.394;2023-10-08T02:47:44;8.93;;;4.23;;
17310;SDS011;8773;43.300;0.394;2023-10-08T02:50:13;4.70;;;4.40;;
17310;SDS011;8773;43.300;0.394;2023-10-08T02:52:40;4.23;;;3.93;;
17310;SDS011;8773;43.300;0.394;2023-10-08T02:55:08;4.67;;;4.07;;
17310;SDS011;8773;43.300;0.394;2023-10-08T02:57:35;4.17;;;3.77;;
17310;SDS011;8773;43.300;0.394;2023-10-08T03:00:03;4.10;;;3.83;;
17310;SDS011;8773;43.300;0.394;2023-10-08T03:02:31;7.10;;;4.30;;
17310;SDS011;8773;43.300;0.394;2023-10-08T03:04:59;5.13;;;4.57;;
17310;SDS011;8773;43.300;0.394;2023-10-08T03:07:28;4.03;;;3.73;;
17310;SDS011;8773;43.300;0.394;2023-10-08T03:09:55;4.67;;;4.00;;
17310;SDS011;8773;43.300;0.394;2023-10-08T03:12:23;7.63;;;4.03;;
17310;SDS011;8773;43.300;0.394;2023-10-08T03:14:50;4.47;;;4.07;;
17310;SDS011;8773;43.300;0.394;2023-10-08T03:17:17;4.87;;;3.83;;
17310;SDS011;8773;43.300;0.394;2023-10-08T03:19:47;4.10;;;3.90;;
17310;SDS011;8773;43.300;0.394;2023-10-08T03:22:14;4.27;;;3.80;;
17310;SDS011;8773;43.300;0.394;2023-10-08T03:24:43;3.63;;;3.30;;
17310;SDS011;8773;43.300;0.394;2023-10-08T03:27:11;4.77;;;4.27;;
17310;SDS011;8773;43.300;0.394;2023-10-08T03:29:38;5.83;;;4.30;;
17310;SDS011;8773;43.300;0.394;2023-10-08T03:32:06;4.30;;;3.90;;
17310;SDS011;8773;43.300;0.394;2023-10-08T03:34:33;5.10;;;4.07;;
17310;SDS011;8773;43.300;0.394;2023-10-08T03:37:01;4.33;;;3.90;;
17310;SDS011;8773;43.300;0.394;2023-10-08T03:39:28;3.93;;;3.50;;
17310;SDS011;8773;43.300;0.394;2023-10-08T03:41:57;6.77;;;3.97;;
17310;SDS011;8773;43.300;0.394;2023-10-08T03:44:24;4.67;;;3.80;;
17310;SDS011;8773;43.300;0.394;2023-10-08T03:46:52;3.90;;;3.60;;
17310;SDS011;8773;43.300;0.394;2023-10-08T03:49:19;4.37;;;4.03;;
17310;SDS011;8773;43.300;0.394;2023-10-08T03:51:46;4.70;;;4.03;;
17310;SDS011;8773;43.300;0.394;2023-10-08T03:54:14;4.37;;;4.00;;
17310;SDS011;8773;43.300;0.394;2023-10-08T03:56:42;4.80;;;3.87;;
17310;SDS011;8773;43.300;0.394;2023-10-08T03:59:11;4.70;;;4.07;;
17310;SDS011;8773;43.300;0.394;2023-10-08T04:01:39;5.07;;;3.77;;
17310;SDS011;8773;43.300;0.394;2023-10-08T04:04:06;4.13;;;3.83;;
17310;SDS011;8773;43.300;0.394;2023-10-08T04:06:34;4.30;;;3.90;;
17310;SDS011;8773;43.300;0.394;2023-10-08T04:09:01;4.67;;;4.37;;
17310;SDS011;8773;43.300;0.394;2023-10-08T04:11:28;4.17;;;3.87;;
17310;SDS011;8773;43.300;0.394;2023-10-08T04:13:56;5.30;;;3.90;;
17310;SDS011;8773;43.300;0.394;2023-10-08T04:16:25;4.17;;;3.87;;
17310;SDS011;8773;43.300;0.394;2023-10-08T04:18:52;4.53;;;4.13;;
17310;SDS011;8773;43.300;0.394;2023-10-08T04:21:20;4.53;;;4.13;;
17310;SDS011;8773;43.300;0.394;2023-10-08T04:23:49;4.40;;;4.00;;
17310;SDS011;8773;43.300;0.394;2023-10-08T04:26:16;5.23;;;4.17;;
17310;SDS011;8773;43.300;0.394;2023-10-08T04:28:44;4.90;;;3.67;;
17310;SDS011;8773;43.300;0.394;2023-10-08T04:31:11;4.30;;;3.93;;
17310;SDS011;8773;43.300;0.394;2023-10-08T04:33:40;4.00;;;3.70;;
17310;SDS011;8773;43.300;0.394;2023-10-08T04:36:10;4.33;;;3.87;;
17310;SDS011;8773;43.300;0.394;2023-10-08T04:38:38;4.40;;;4.00;;
17310;SDS011;8773;43.300;0.394;2023-10-08T04:41:05;3.83;;;3.47;;
17310;SDS011;8773;43.300;0.394;2023-10-08T04:43:33;4.47;;;4.07;;
17310;SDS011;8773;43.300;0.394;2023-10-08T04:46:00;3.93;;;3.63;;
17310;SDS011;8773;43.300;0.394;2023-10-08T04:48:28;4.40;;;3.87;;
17310;SDS011;8773;43.300;0.394;2023-10-08T04:50:57;4.40;;;3.77;;
17310;SDS011;8773;43.300;0.394;2023-10-08T04:53:25;3.57;;;3.20;;
17310;SDS011;8773;43.300;0.394;2023-10-08T04:55:53;3.97;;;3.53;;
17310;SDS011;8773;43.300;0.394;2023-10-08T04:58:20;4.00;;;3.63;;
17310;SDS011;8773;43.300;0.394;2023-10-08T05:00:47;9.07;;;4.10;;
17310;SDS011;8773;43.300;0.394;2023-10-08T05:03:15;4.30;;;4.00;;
17310;SDS011;8773;43.300;0.394;2023-10-08T05:05:43;5.33;;;3.53;;
17310;SDS011;8773;43.300;0.394;2023-10-08T05:08:11;5.93;;;3.90;;
17310;SDS011;8773;43.300;0.394;2023-10-08T05:10:39;4.27;;;3.77;;
17310;SDS011;8773;43.300;0.394;2023-10-08T05:13:06;4.73;;;3.40;;
17310;SDS011;8773;43.300;0.394;2023-10-08T05:15:33;4.23;;;3.30;;
17310;SDS011;8773;43.300;0.394;2023-10-08T05:18:01;4.00;;;3.60;;
17310;SDS011;8773;43.300;0.394;2023-10-08T05:20:29;6.33;;;4.07;;
17310;SDS011;8773;43.300;0.394;2023-10-08T05:22:56;4.50;;;4.10;;
17310;SDS011;8773;43.300;0.394;2023-10-08T05:25:28;5.17;;;3.83;;
17310;SDS011;8773;43.300;0.394;2023-10-08T05:27:55;4.37;;;3.97;;
17310;SDS011;8773;43.300;0.394;2023-10-08T05:30:23;3.80;;;3.50;;
17310;SDS011;8773;43.300;0.394;2023-10-08T05:32:52;4.17;;;3.83;;
17310;SDS011;8773;43.300;0.394;2023-10-08T05:35:20;4.57;;;3.77;;
17310;SDS011;8773;43.300;0.394;2023-10-08T05:37:47;4.90;;;3.50;;
17310;SDS011;8773;43.300;0.394;2023-10-08T05:40:14;4.33;;;3.83;;
17310;SDS011;8773;43.300;0.394;2023-10-08T05:42:43;4.60;;;3.67;;
17310;SDS011;8773;43.300;0.394;2023-10-08T05:45:10;3.93;;;3.50;;
17310;SDS011;8773;43.300;0.394;2023-10-08T05:47:38;4.37;;;3.90;;
17310;SDS011;8773;43.300;0.394;2023-10-08T05:50:06;4.30;;;3.90;;
17310;SDS011;8773;43.300;0.394;2023-10-08T05:52:34;4.80;;;3.40;;
17310;SDS011;8773;43.300;0.394;2023-10-08T05:55:01;5.10;;;3.63;;
17310;SDS011;8773;43.300;0.394;2023-10-08T05:57:28;4.80;;;3.47;;
17310;SDS011;8773;43.300;0.394;2023-10-08T05:59:57;3.70;;;3.50;;
17310;SDS011;8773;43.300;0.394;2023-10-08T06:02:25;4.37;;;3.33;;
17310;SDS011;8773;43.300;0.394;2023-10-08T06:04:57;4.73;;;3.97;;
17310;SDS011;8773;43.300;0.394;2023-10-08T06:07:24;3.83;;;3.53;;
17310;SDS011;8773;43.300;0.394;2023-10-08T06:09:52;4.40;;;4.00;;
17310;SDS011;8773;43.300;0.394;2023-10-08T06:12:19;3.93;;;3.50;;
17310;SDS011;8773;43.300;0.394;2023-10-08T06:14:46;3.73;;;3.43;;
17310;SDS011;8773;43.300;0.394;2023-10-08T06:17:15;4.40;;;2.97;;
17310;SDS011;8773;43.300;0.394;2023-10-08T06:19:43;3.90;;;3.57;;
17310;SDS011;8773;43.300;0.394;2023-10-08T06:22:10;5.07;;;3.50;;
17310;SDS011;8773;43.300;0.394;2023-10-08T06:24:37;5.37;;;3.73;;
17310;SDS011;8773;43.300;0.394;2023-10-08T06:27:05;3.63;;;3.30;;
17310;SDS011;8773;43.300;0.394;2023-10-08T06:29:32;3.93;;;3.47;;
17310;SDS011;8773;43.300;0.394;2023-10-08T06:31:59;3.60;;;3.40;;
17310;SDS011;8773;43.300;0.394;2023-10-08T06:34:28;4.20;;;3.60;;
17310;SDS011;8773;43.300;0.394;2023-10-08T06:36:58;4.47;;;3.60;;
17310;SDS011;8773;43.300;0.394;2023-10-08T06:39:26;4.50;;;3.60;;
17310;SDS011;8773;43.300;0.394;2023-10-08T06:42:07;4.40;;;3.70;;
17310;SDS011;8773;43.300;0.394;2023-10-08T06:44:34;5.27;;;3.23;;
17310;SDS011;8773;43.300;0.394;2023-10-08T06:47:02;3.40;;;3.10;;
17310;SDS011;8773;43.300;0.394;2023-10-08T06:49:30;3.63;;;3.33;;
17310;SDS011;8773;43.300;0.394;2023-10-08T06:51:58;3.23;;;2.97;;
17310;SDS011;8773;43.300;0.394;2023-10-08T06:54:25;3.63;;;3.33;;
17310;SDS011;8773;43.300;0.394;2023-10-08T06:56:53;3.93;;;3.50;;
17310;SDS011;8773;43.300;0.394;2023-10-08T06:59:20;6.50;;;3.53;;
17310;SDS011;8773;43.300;0.394;2023-10-08T07:01:47;4.20;;;3.30;;
17310;SDS011;8773;43.300;0.394;2023-10-08T07:04:15;4.33;;;3.23;;
17310;SDS011;8773;43.300;0.394;2023-10-08T07:06:44;3.17;;;2.97;;
17310;SDS011;8773;43.300;0.394;2023-10-08T07:09:12;3.33;;;3.03;;
17310;SDS011;8773;43.300;0.394;2023-10-08T07:11:40;3.60;;;3.30;;
17310;SDS011;8773;43.300;0.394;2023-10-08T07:14:07;3.03;;;2.80;;
17310;SDS011;8773;43.300;0.394;2023-10-08T07:16:35;3.37;;;3.00;;
17310;SDS011;8773;43.300;0.394;2023-10-08T07:19:02;3.33;;;3.00;;
17310;SDS011;8773;43.300;0.394;2023-10-08T07:21:30;3.73;;;3.20;;
17310;SDS011;8773;43.300;0.394;2023-10-08T07:23:59;3.47;;;3.17;;
17310;SDS011;8773;43.300;0.394;2023-10-08T07:26:26;3.83;;;3.30;;
17310;SDS011;8773;43.300;0.394;2023-10-08T07:28:55;3.30;;;2.97;;
17310;SDS011;8773;43.300;0.394;2023-10-08T07:31:22;3.97;;;3.30;;
17310;SDS011;8773;43.300;0.394;2023-10-08T07:33:51;2.90;;;2.70;;
17310;SDS011;8773;43.300;0.394;2023-10-08T07:36:20;4.30;;;3.17;;
17310;SDS011;8773;43.300;0.394;2023-10-08T07:38:48;3.27;;;2.93;;
17310;SDS011;8773;43.300;0.394;2023-10-08T07:41:17;2.93;;;2.73;;
17310;SDS011;8773;43.300;0.394;2023-10-08T07:43:44;5.57;;;3.00;;
17310;SDS011;8773;43.300;0.394;2023-10-08T07:46:12;2.73;;;2.53;;
17310;SDS011;8773;43.300;0.394;2023-10-08T07:48:39;2.87;;;2.70;;
17310;SDS011;8773;43.300;0.394;2023-10-08T07:51:07;2.90;;;2.70;;
17310;SDS011;8773;43.300;0.394;2023-10-08T07:53:35;3.00;;;2.70;;
17310;SDS011;8773;43.300;0.394;2023-10-08T07:56:02;2.80;;;2.60;;
17310;SDS011;8773;43.300;0.394;2023-10-08T07:58:32;2.50;;;2.30;;
17310;SDS011;8773;43.300;0.394;2023-10-08T08:01:02;3.47;;;2.83;;
17310;SDS011;8773;43.300;0.394;2023-10-08T08:03:30;3.10;;;2.50;;
17310;SDS011;8773;43.300;0.394;2023-10-08T08:05:57;4.00;;;2.80;;
17310;SDS011;8773;43.300;0.394;2023-10-08T08:08:25;3.00;;;2.80;;
17310;SDS011;8773;43.300;0.394;2023-10-08T08:10:52;2.70;;;2.50;;
17310;SDS011;8773;43.300;0.394;2023-10-08T08:13:20;3.50;;;2.80;;
17310;SDS011;8773;43.300;0.394;2023-10-08T08:15:49;3.35;;;2.50;;
17310;SDS011;8773;43.300;0.394;2023-10-08T08:18:18;2.42;;;2.22;;
17310;SDS011;8773;43.300;0.394;2023-10-08T08:20:46;3.35;;;2.50;;
17310;SDS011;8773;43.300;0.394;2023-10-08T08:23:13;2.60;;;2.40;;
17310;SDS011;8773;43.300;0.394;2023-10-08T08:25:41;2.65;;;2.42;;
17310;SDS011;8773;43.300;0.394;2023-10-08T08:28:09;2.97;;;2.78;;
17310;SDS011;8773;43.300;0.394;2023-10-08T08:30:37;2.47;;;2.38;;
17310;SDS011;8773;43.300;0.394;2023-10-08T08:33:06;2.90;;;2.70;;
17310;SDS011;8773;43.300;0.394;2023-10-08T08:35:33;3.92;;;2.70;;
17310;SDS011;8773;43.300;0.394;2023-10-08T08:38:00;4.45;;;2.80;;
17310;SDS011;8773;43.300;0.394;2023-10-08T08:40:28;2.90;;;2.70;;
17310;SDS011;8773;43.300;0.394;2023-10-08T08:42:55;2.95;;;2.70;;
17310;SDS011;8773;43.300;0.394;2023-10-08T08:45:23;3.00;;;2.38;;
17310;SDS011;8773;43.300;0.394;2023-10-08T08:47:50;2.58;;;2.38;;
17310;SDS011;8773;43.300;0.394;2023-10-08T08:50:20;3.10;;;2.60;;
17310;SDS011;8773;43.300;0.394;2023-10-08T08:52:48;3.45;;;2.42;;
17310;SDS011;8773;43.300;0.394;2023-10-08T08:55:16;2.72;;;2.47;;
17310;SDS011;8773;43.300;0.394;2023-10-08T08:57:46;2.92;;;2.72;;
17310;SDS011;8773;43.300;0.394;2023-10-08T09:00:15;3.97;;;2.78;;
17310;SDS011;8773;43.300;0.394;2023-10-08T09:02:44;2.83;;;2.50;;
17310;SDS011;8773;43.300;0.394;2023-10-08T09:05:12;3.35;;;2.47;;
17310;SDS011;8773;43.300;0.394;2023-10-08T09:07:52;3.67;;;2.75;;
17310;SDS011;8773;43.300;0.394;2023-10-08T09:10:20;3.45;;;2.63;;
17310;SDS011;8773;43.300;0.394;2023-10-08T09:12:48;2.97;;;2.67;;
17310;SDS011;8773;43.300;0.394;2023-10-08T09:15:15;2.90;;;2.70;;
17310;SDS011;8773;43.300;0.394;2023-10-08T09:17:43;3.33;;;2.80;;
17310;SDS011;8773;43.300;0.394;2023-10-08T09:20:11;2.90;;;2.65;;
17310;SDS011;8773;43.300;0.394;2023-10-08T09:22:38;4.00;;;2.60;;
17310;SDS011;8773;43.300;0.394;2023-10-08T09:25:07;3.70;;;2.78;;
17310;SDS011;8773;43.300;0.394;2023-10-08T09:27:35;4.55;;;2.60;;
17310;SDS011;8773;43.300;0.394;2023-10-08T09:30:04;5.18;;;2.90;;
17310;SDS011;8773;43.300;0.394;2023-10-08T09:32:32;2.75;;;2.55;;
17310;SDS011;8773;43.300;0.394;2023-10-08T09:34:59;2.97;;;2.65;;
17310;SDS011;8773;43.300;0.394;2023-10-08T09:37:27;2.83;;;2.63;;
17310;SDS011;8773;43.300;0.394;2023-10-08T09:39:55;3.72;;;2.42;;
17310;SDS011;8773;43.300;0.394;2023-10-08T09:42:25;3.33;;;2.72;;
17310;SDS011;8773;43.300;0.394;2023-10-08T09:44:53;2.80;;;2.50;;
17310;SDS011;8773;43.300;0.394;2023-10-08T09:47:21;4.20;;;3.10;;
17310;SDS011;8773;43.300;0.394;2023-10-08T09:49:52;3.28;;;2.97;;
17310;SDS011;8773;43.300;0.394;2023-10-08T09:52:26;4.00;;;2.53;;
17310;SDS011;8773;43.300;0.394;2023-10-08T09:55:00;3.05;;;2.72;;
17310;SDS011;8773;43.300;0.394;2023-10-08T09:57:32;3.03;;;2.72;;
17310;SDS011;8773;43.300;0.394;2023-10-08T10:00:00;3.20;;;2.53;;
17310;SDS011;8773;43.300;0.394;2023-10-08T10:02:28;3.22;;;2.60;;
17310;SDS011;8773;43.300;0.394;2023-10-08T10:04:56;2.58;;;2.38;;
17310;SDS011;8773;43.300;0.394;2023-10-08T10:07:25;2.75;;;2.20;;
17310;SDS011;8773;43.300;0.394;2023-10-08T10:09:52;2.90;;;2.60;;
17310;SDS011;8773;43.300;0.394;2023-10-08T10:12:24;2.22;;;2.03;;
17310;SDS011;8773;43.300;0.394;2023-10-08T10:14:54;3.25;;;2.58;;
17310;SDS011;8773;43.300;0.394;2023-10-08T10:17:24;3.42;;;2.72;;
17310;SDS011;8773;43.300;0.394;2023-10-08T10:20:10;2.58;;;2.38;;
17310;SDS011;8773;43.300;0.394;2023-10-08T10:22:38;2.97;;;2.65;;
17310;SDS011;8773;43.300;0.394;2023-10-08T10:25:06;3.40;;;2.33;;
17310;SDS011;8773;43.300;0.394;2023-10-08T10:27:38;2.80;;;2.60;;
17310;SDS011;8773;43.300;0.394;2023-10-08T10:30:07;3.35;;;2.38;;
17310;SDS011;8773;43.300;0.394;2023-10-08T10:32:35;4.53;;;2.92;;
17310;SDS011;8773;43.300;0.394;2023-10-08T10:35:03;3.33;;;2.50;;
17310;SDS011;8773;43.300;0.394;2023-10-08T10:37:31;3.17;;;2.88;;
17310;SDS011;8773;43.300;0.394;2023-10-08T10:39:59;3.03;;;2.60;;
17310;SDS011;8773;43.300;0.394;2023-10-08T10:42:26;4.22;;;2.45;;
17310;SDS011;8773;43.300;0.394;2023-10-08T10:44:54;2.85;;;2.67;;
17310;SDS011;8773;43.300;0.394;2023-10-08T10:47:23;3.83;;;2.50;;
17310;SDS011;8773;43.300;0.394;2023-10-08T10:49:52;2.80;;;2.60;;
17310;SDS011;8773;43.300;0.394;2023-10-08T10:52:20;2.60;;;2.40;;
17310;SDS011;8773;43.300;0.394;2023-10-08T10:54:48;3.97;;;3.08;;
17310;SDS011;8773;43.300;0.394;2023-10-08T10:57:16;2.80;;;2.60;;
17310;SDS011;8773;43.300;0.394;2023-10-08T10:59:44;2.80;;;2.60;;
17310;SDS011;8773;43.300;0.394;2023-10-08T11:02:13;3.13;;;2.80;;
17310;SDS011;8773;43.300;0.394;2023-10-08T11:04:44;2.97;;;2.72;;
17310;SDS011;8773;43.300;0.394;2023-10-08T11:07:11;10.07;;;3.53;;
17310;SDS011;8773;43.300;0.394;2023-10-08T11:09:39;3.90;;;2.78;;
17310;SDS011;8773;43.300;0.394;2023-10-08T11:12:07;3.40;;;3.10;;
17310;SDS011;8773;43.300;0.394;2023-10-08T11:14:34;3.33;;;2.90;;
17310;SDS011;8773;43.300;0.394;2023-10-08T11:17:08;3.00;;;2.70;;
17310;SDS011;8773;43.300;0.394;2023-10-08T11:19:36;2.60;;;2.35;;
17310;SDS011;8773;43.300;0.394;2023-10-08T11:22:05;3.03;;;2.60;;
17310;SDS011;8773;43.300;0.394;2023-10-08T11:24:33;4.93;;;2.83;;
17310;SDS011;8773;43.300;0.394;2023-10-08T11:27:01;2.83;;;2.58;;
17310;SDS011;8773;43.300;0.394;2023-10-08T11:29:29;3.15;;;2.15;;
17310;SDS011;8773;43.300;0.394;2023-10-08T11:31:56;4.65;;;2.30;;
17310;SDS011;8773;43.300;0.394;2023-10-08T11:34:23;2.80;;;2.03;;
17310;SDS011;8773;43.300;0.394;2023-10-08T11:36:58;2.65;;;2.45;;
17310;SDS011;8773;43.300;0.394;2023-10-08T11:39:27;3.30;;;2.17;;
17310;SDS011;8773;43.300;0.394;2023-10-08T11:41:55;3.92;;;2.90;;
17310;SDS011;8773;43.300;0.394;2023-10-08T11:44:25;2.70;;;2.50;;
17310;SDS011;8773;43.300;0.394;2023-10-08T11:46:53;3.08;;;2.80;;
17310;SDS011;8773;43.300;0.394;2023-10-08T11:49:23;3.00;;;2.50;;
17310;SDS011;8773;43.300;0.394;2023-10-08T11:51:51;2.75;;;2.55;;
17310;SDS011;8773;43.300;0.394;2023-10-08T11:54:18;2.63;;;2.40;;
17310;SDS011;8773;43.300;0.394;2023-10-08T11:56:47;3.28;;;2.40;;
17310;SDS011;8773;43.300;0.394;2023-10-08T11:59:14;3.05;;;2.80;;
17310;SDS011;8773;43.300;0.394;2023-10-08T12:01:42;4.93;;;3.38;;
17310;SDS011;8773;43.300;0.394;2023-10-08T12:04:09;3.25;;;3.05;;
17310;SDS011;8773;43.300;0.394;2023-10-08T12:06:37;3.85;;;3.40;;
17310;SDS011;8773;43.300;0.394;2023-10-08T12:09:05;5.22;;;4.38;;
17310;SDS011;8773;43.300;0.394;2023-10-08T12:11:32;5.55;;;5.03;;
17310;SDS011;8773;43.300;0.394;2023-10-08T12:14:01;4.85;;;4.45;;
17310;SDS011;8773;43.300;0.394;2023-10-08T12:16:28;4.82;;;4.43;;
17310;SDS011;8773;43.300;0.394;2023-10-08T12:18:56;5.63;;;4.63;;
17310;SDS011;8773;43.300;0.394;2023-10-08T12:21:23;4.70;;;4.32;;
17310;SDS011;8773;43.300;0.394;2023-10-08T12:23:51;4.95;;;2.88;;
17310;SDS011;8773;43.300;0.394;2023-10-08T12:26:19;5.03;;;4.22;;
17310;SDS011;8773;43.300;0.394;2023-10-08T12:28:46;4.63;;;4.22;;
17310;SDS011;8773;43.300;0.394;2023-10-08T12:31:15;4.53;;;3.30;;
17310;SDS011;8773;43.300;0.394;2023-10-08T12:33:44;3.13;;;2.65;;
17310;SDS011;8773;43.300;0.394;2023-10-08T12:36:11;3.28;;;2.47;;
17310;SDS011;8773;43.300;0.394;2023-10-08T12:38:39;4.60;;;2.70;;
17310;SDS011;8773;43.300;0.394;2023-10-08T12:41:08;2.78;;;2.58;;
17310;SDS011;8773;43.300;0.394;2023-10-08T12:43:36;5.20;;;3.28;;
17310;SDS011;8773;43.300;0.394;2023-10-08T12:46:03;4.00;;;3.28;;
17310;SDS011;8773;43.300;0.394;2023-10-08T12:48:32;3.10;;;2.85;;
17310;SDS011;8773;43.300;0.394;2023-10-08T12:51:00;3.20;;;3.00;;
17310;SDS011;8773;43.300;0.394;2023-10-08T12:53:28;3.67;;;3.10;;
17310;SDS011;8773;43.300;0.394;2023-10-08T12:55:55;3.47;;;2.88;;
17310;SDS011;8773;43.300;0.394;2023-10-08T12:58:23;4.43;;;3.10;;
17310;SDS011;8773;43.300;0.394;2023-10-08T13:00:52;7.60;;;3.10;;
17310;SDS011;8773;43.300;0.394;2023-10-08T13:03:20;3.58;;;2.78;;
17310;SDS011;8773;43.300;0.394;2023-10-08T13:05:49;4.90;;;2.97;;
17310;SDS011;8773;43.300;0.394;2023-10-08T13:08:16;5.88;;;3.05;;
17310;SDS011;8773;43.300;0.394;2023-10-08T13:10:43;3.10;;;2.83;;
17310;SDS011;8773;43.300;0.394;2023-10-08T13:13:12;3.72;;;3.08;;
17310;SDS011;8773;43.300;0.394;2023-10-08T13:15:40;4.45;;;3.20;;
17310;SDS011;8773;43.300;0.394;2023-10-08T13:18:08;4.22;;;3.10;;
17310;SDS011;8773;43.300;0.394;2023-10-08T13:20:36;3.72;;;2.80;;
17310;SDS011;8773;43.300;0.394;2023-10-08T13:23:04;3.92;;;3.20;;
17310;SDS011;8773;43.300;0.394;2023-10-08T13:25:32;3.33;;;3.00;;
17310;SDS011;8773;43.300;0.394;2023-10-08T13:27:59;4.25;;;3.00;;
17310;SDS011;8773;43.300;0.394;2023-10-08T13:30:26;5.10;;;2.95;;
17310;SDS011;8773;43.300;0.394;2023-10-08T13:32:54;3.70;;;3.33;;
17310;SDS011;8773;43.300;0.394;2023-10-08T13:35:22;5.07;;;3.38;;
17310;SDS011;8773;43.300;0.394;2023-10-08T13:37:50;4.57;;;3.20;;
17310;SDS011;8773;43.300;0.394;2023-10-08T13:40:18;4.65;;;3.40;;
17310;SDS011;8773;43.300;0.394;2023-10-08T13:42:46;7.28;;;3.75;;
17310;SDS011;8773;43.300;0.394;2023-10-08T13:45:13;5.65;;;3.38;;
17310;SDS011;8773;43.300;0.394;2023-10-08T13:47:40;3.63;;;3.15;;
17310;SDS011;8773;43.300;0.394;2023-10-08T13:50:08;4.88;;;3.30;;
17310;SDS011;8773;43.300;0.394;2023-10-08T13:52:36;4.93;;;3.88;;
17310;SDS011;8773;43.300;0.394;2023-10-08T13:55:04;4.10;;;3.70;;
17310;SDS011;8773;43.300;0.394;2023-10-08T13:57:34;3.78;;;3.45;;
17310;SDS011;8773;43.300;0.394;2023-10-08T14:00:01;3.65;;;3.35;;
17310;SDS011;8773;43.300;0.394;2023-10-08T14:02:29;3.75;;;3.42;;
17310;SDS011;8773;43.300;0.394;2023-10-08T14:04:56;6.35;;;3.33;;
17310;SDS011;8773;43.300;0.394;2023-10-08T14:07:23;4.63;;;3.80;;
17310;SDS011;8773;43.300;0.394;2023-10-08T14:09:51;5.53;;;4.15;;
17310;SDS011;8773;43.300;0.394;2023-10-08T14:12:18;5.60;;;4.63;;
17310;SDS011;8773;43.300;0.394;2023-10-08T14:14:47;4.60;;;3.55;;
17310;SDS011;8773;43.300;0.394;2023-10-08T14:17:14;5.53;;;3.45;;
17310;SDS011;8773;43.300;0.394;2023-10-08T14:19:42;5.88;;;4.35;;
17310;SDS011;8773;43.300;0.394;2023-10-08T14:22:10;6.05;;;4.20;;
17310;SDS011;8773;43.300;0.394;2023-10-08T14:24:37;5.82;;;3.67;;
17310;SDS011;8773;43.300;0.394;2023-10-08T14:27:05;5.88;;;3.53;;
17310;SDS011;8773;43.300;0.394;2023-10-08T14:29:33;3.53;;;2.97;;
17310;SDS011;8773;43.300;0.394;2023-10-08T14:32:01;5.70;;;3.55;;
17310;SDS011;8773;43.300;0.394;2023-10-08T14:34:29;6.60;;;3.50;;
17310;SDS011;8773;43.300;0.394;2023-10-08T14:36:56;3.20;;;3.00;;
17310;SDS011;8773;43.300;0.394;2023-10-08T14:39:24;4.22;;;3.20;;
17310;SDS011;8773;43.300;0.394;2023-10-08T14:41:51;4.07;;;3.53;;
17310;SDS011;8773;43.300;0.394;2023-10-08T14:44:19;3.67;;;3.38;;
17310;SDS011;8773;43.300;0.394;2023-10-08T14:46:46;4.85;;;3.08;;
17310;SDS011;8773;43.300;0.394;2023-10-08T14:49:15;6.45;;;3.88;;
17310;SDS011;8773;43.300;0.394;2023-10-08T14:51:43;5.65;;;3.70;;
17310;SDS011;8773;43.300;0.394;2023-10-08T14:54:11;4.15;;;3.75;;
17310;SDS011;8773;43.300;0.394;2023-10-08T14:56:38;4.53;;;3.47;;
17310;SDS011;8773;43.300;0.394;2023-10-08T14:59:06;5.40;;;3.25;;
17310;SDS011;8773;43.300;0.394;2023-10-08T15:01:33;4.22;;;3.38;;
17310;SDS011;8773;43.300;0.394;2023-10-08T15:04:00;3.92;;;3.30;;